Time;durP1;ratioP1;P1;durP2;ratioP2;P2;SDS_P1;SDS_P2;PMS_P1;PMS_P2;Temp;Humidity;BMP_temperature;BMP_pressure;BME280_temperature;BME280_humidity;BME280_pressure;Samples;Min_cycle;Max_cycle;Signal;HPM_P1;HPM_P2
2022/10/25 00:00:29;;;;;;;6.13;1.17;;;18.00;99.90;;;;;;5053768;28;20423;-72
2022/10/25 00:02:55;;;;;;;7.97;1.27;;;17.90;99.90;;;;;;5053892;28;20036;-72
2022/10/25 00:05:20;;;;;;;5.40;0.90;;;17.90;99.90;;;;;;5053566;28;20557;-72
2022/10/25 00:07:46;;;;;;;8.10;1.48;;;17.90;99.90;;;;;;5053841;28;20021;-72
2022/10/25 00:10:11;;;;;;;4.18;0.95;;;17.90;99.90;;;;;;5053492;28;20033;-72
2022/10/25 00:12:42;;;;;;;5.93;1.20;;;17.90;99.90;;;;;;5053874;28;20485;-72
2022/10/25 00:15:08;;;;;;;4.47;0.93;;;17.90;99.90;;;;;;5053739;28;20039;-72
2022/10/25 00:17:34;;;;;;;9.05;1.05;;;17.90;99.90;;;;;;5053837;28;20029;-72
2022/10/25 00:19:59;;;;;;;6.75;1.25;;;17.90;99.90;;;;;;5053476;28;20032;-73
2022/10/25 00:22:27;;;;;;;5.15;0.85;;;17.90;99.90;;;;;;5053482;28;20024;-72
2022/10/25 00:24:53;;;;;;;6.97;1.58;;;17.90;99.90;;;;;;5053273;28;20496;-72
2022/10/25 00:27:18;;;;;;;5.90;1.02;;;17.90;99.90;;;;;;5053436;28;20024;-72
2022/10/25 00:29:44;;;;;;;4.45;0.98;;;17.90;99.90;;;;;;5053384;28;20029;-72
2022/10/25 00:32:10;;;;;;;6.45;1.55;;;17.90;99.90;;;;;;5053419;28;20364;-71
2022/10/25 00:34:39;;;;;;;7.85;1.55;;;17.90;99.90;;;;;;5053118;28;20532;-72
2022/10/25 00:37:04;;;;;;;7.60;1.02;;;17.80;99.90;;;;;;5053387;28;20083;-72
2022/10/25 00:39:30;;;;;;;4.32;1.25;;;17.80;99.90;;;;;;5052976;28;20029;-72
2022/10/25 00:41:56;;;;;;;3.45;0.93;;;17.90;99.90;;;;;;5052936;28;20025;-72
2022/10/25 00:44:40;;;;;;;7.32;1.20;;;17.80;99.90;;;;;;5051993;28;20373;-72
2022/10/25 00:47:14;;;;;;;4.80;1.00;;;17.80;99.90;;;;;;5051837;28;20025;-72
2022/10/25 00:49:41;;;;;;;3.97;0.93;;;17.90;99.90;;;;;;5053027;28;20047;-72
2022/10/25 00:52:08;;;;;;;6.95;1.15;;;17.80;99.90;;;;;;5053004;28;20013;-72
2022/10/25 00:54:40;;;;;;;4.20;1.25;;;17.80;99.90;;;;;;5053032;28;20032;-72
2022/10/25 00:57:21;;;;;;;5.68;1.10;;;17.80;99.90;;;;;;5052913;28;20108;-72
2022/10/25 00:59:48;;;;;;;8.85;1.20;;;17.80;99.90;;;;;;5053087;28;20029;-72
2022/10/25 01:02:15;;;;;;;5.40;1.20;;;17.80;99.90;;;;;;5052844;28;20489;-72
2022/10/25 01:04:41;;;;;;;6.70;1.40;;;17.80;99.90;;;;;;5052671;28;20029;-72
2022/10/25 01:07:07;;;;;;;4.97;1.25;;;17.80;99.90;;;;;;5052950;28;20405;-72
2022/10/25 01:09:35;;;;;;;6.45;1.20;;;17.80;99.90;;;;;;5052647;28;20477;-72
2022/10/25 01:12:01;;;;;;;4.65;1.20;;;17.80;99.90;;;;;;5052815;28;20040;-72
2022/10/25 01:14:27;;;;;;;8.25;0.90;;;17.80;99.90;;;;;;5052763;28;20025;-72
2022/10/25 01:16:56;;;;;;;5.28;1.25;;;17.80;99.90;;;;;;5052782;28;20108;-72
2022/10/25 01:19:45;;;;;;;4.07;0.70;;;17.80;99.90;;;;;;5052490;28;20101;-73
2022/10/25 01:22:21;;;;;;;6.05;1.38;;;17.80;99.90;;;;;;5052761;28;20054;-72
2022/10/25 01:24:58;;;;;;;5.80;0.82;;;17.80;99.90;;;;;;5052749;28;20036;-72
2022/10/25 01:27:27;;;;;;;5.75;1.13;;;17.80;99.90;;;;;;5052335;28;20025;-72
2022/10/25 01:30:10;;;;;;;6.15;1.48;;;17.70;99.90;;;;;;5051470;28;20067;-72
2022/10/25 01:33:03;;;;;;;6.38;1.33;;;17.70;99.90;;;;;;5051002;28;20036;-72
2022/10/25 01:35:34;;;;;;;5.18;0.90;;;17.70;99.90;;;;;;5052691;28;20029;-73
2022/10/25 01:37:59;;;;;;;6.90;1.00;;;17.70;99.90;;;;;;5052578;28;20174;-72
2022/10/25 01:40:43;;;;;;;4.65;1.10;;;17.70;99.90;;;;;;5050947;28;20529;-72
2022/10/25 01:43:18;;;;;;;4.18;0.95;;;17.70;99.90;;;;;;5052595;28;20116;-72
2022/10/25 01:46:14;;;;;;;5.05;0.93;;;17.70;99.90;;;;;;5052642;28;20021;-72
2022/10/25 01:48:48;;;;;;;5.60;0.93;;;17.70;99.90;;;;;;5037363;28;20041;-72
2022/10/25 01:51:16;;;;;;;3.65;0.90;;;17.70;99.90;;;;;;5052446;28;20027;-72
2022/10/25 01:53:47;;;;;;;3.25;0.80;;;17.70;99.90;;;;;;5053583;28;20022;-72
2022/10/25 01:56:28;;;;;;;3.55;0.90;;;17.60;99.90;;;;;;5056373;28;20021;-72
2022/10/25 01:59:06;;;;;;;5.47;1.25;;;17.60;99.90;;;;;;5056147;28;20017;-72
2022/10/25 02:01:56;;;;;;;6.18;0.90;;;17.60;99.90;;;;;;5055764;28;20111;-72
2022/10/25 02:04:27;;;;;;;5.93;1.00;;;17.60;99.90;;;;;;5056234;28;20028;-72
2022/10/25 02:07:03;;;;;;;5.07;0.88;;;17.60;99.90;;;;;;5054805;28;20029;-72
2022/10/25 02:09:54;;;;;;;6.85;1.20;;;17.60;99.90;;;;;;5053954;28;20029;-72
2022/10/25 02:12:28;;;;;;;4.47;0.85;;;17.60;99.90;;;;;;5054748;28;20043;-72
2022/10/25 02:15:09;;;;;;;3.78;0.75;;;17.60;99.90;;;;;;5055996;28;20075;-72
2022/10/25 02:17:45;;;;;;;4.00;1.10;;;17.60;99.90;;;;;;5055444;28;20025;-71
2022/10/25 02:20:16;;;;;;;5.82;1.35;;;17.60;99.90;;;;;;5055962;28;20025;-71
2022/10/25 02:22:42;;;;;;;5.38;0.90;;;17.60;99.90;;;;;;5055780;28;20372;-72
2022/10/25 02:25:09;;;;;;;4.32;1.33;;;17.60;99.90;;;;;;5055778;28;20089;-72
2022/10/25 02:27:37;;;;;;;5.15;1.00;;;17.60;99.90;;;;;;5055614;28;20036;-72
2022/10/25 02:30:05;;;;;;;2.88;0.93;;;17.60;99.90;;;;;;5055370;28;20060;-72
2022/10/25 02:32:30;;;;;;;4.22;0.88;;;17.50;99.90;;;;;;5055559;28;20108;-72
2022/10/25 02:34:56;;;;;;;7.63;1.30;;;17.50;99.90;;;;;;5055699;28;20508;-72
2022/10/25 02:37:22;;;;;;;8.20;1.02;;;17.50;99.90;;;;;;5055520;28;20056;-72
2022/10/25 02:39:48;;;;;;;4.45;0.95;;;17.50;99.90;;;;;;5055048;28;20481;-71
2022/10/25 02:42:14;;;;;;;3.88;1.02;;;17.50;99.90;;;;;;5055388;28;20037;-72
2022/10/25 02:44:39;;;;;;;7.13;1.00;;;17.50;99.90;;;;;;5055050;28;20033;-72
2022/10/25 02:47:05;;;;;;;3.70;0.73;;;17.50;99.90;;;;;;5055417;28;20017;-72
2022/10/25 02:49:30;;;;;;;5.28;0.95;;;17.50;99.90;;;;;;5055043;28;20040;-72
2022/10/25 02:51:56;;;;;;;3.58;0.70;;;17.50;99.90;;;;;;5047079;28;20026;-71
2022/10/25 02:54:22;;;;;;;4.88;0.98;;;17.40;99.90;;;;;;5035102;28;20366;-71
2022/10/25 02:56:51;;;;;;;3.20;0.68;;;17.50;99.90;;;;;;5034471;28;20025;-72
2022/10/25 02:59:18;;;;;;;4.78;1.00;;;17.50;99.90;;;;;;5034615;28;20017;-72
2022/10/25 03:01:43;;;;;;;5.95;0.65;;;17.50;99.90;;;;;;5050389;28;20044;-72
2022/10/25 03:04:09;;;;;;;4.32;1.30;;;17.50;99.90;;;;;;5033432;28;20022;-72
2022/10/25 03:06:34;;;;;;;3.13;0.90;;;17.50;99.90;;;;;;5033520;28;20051;-72
2022/10/25 03:09:00;;;;;;;2.88;0.40;;;17.50;99.90;;;;;;5035052;28;20041;-72
2022/10/25 03:11:26;;;;;;;3.25;0.77;;;17.50;99.90;;;;;;5034981;28;20037;-72
2022/10/25 03:13:51;;;;;;;4.30;0.90;;;17.50;99.90;;;;;;5034555;28;20021;-71
2022/10/25 03:16:17;;;;;;;5.38;1.20;;;17.50;99.90;;;;;;5034948;28;20063;-73
2022/10/25 03:18:42;;;;;;;6.68;0.95;;;17.40;99.90;;;;;;5034788;28;20071;-72
2022/10/25 03:21:08;;;;;;;5.28;0.85;;;17.40;99.90;;;;;;5034659;28;20467;-72
2022/10/25 03:23:33;;;;;;;3.50;1.05;;;17.40;99.90;;;;;;5034715;28;20029;-72
2022/10/25 03:25:59;;;;;;;5.05;0.93;;;17.40;99.90;;;;;;5034924;28;20021;-72
2022/10/25 03:28:27;;;;;;;3.35;1.10;;;17.40;99.90;;;;;;5034210;28;20673;-72
2022/10/25 03:30:53;;;;;;;3.55;1.00;;;17.40;99.90;;;;;;5034694;28;20049;-72
2022/10/25 03:33:19;;;;;;;5.40;0.90;;;17.40;99.90;;;;;;5034632;28;20072;-72
2022/10/25 03:35:47;;;;;;;4.95;0.98;;;17.40;99.90;;;;;;5034372;28;20076;-72
2022/10/25 03:38:13;;;;;;;3.00;0.85;;;17.40;99.90;;;;;;5034403;28;20029;-72
2022/10/25 03:40:40;;;;;;;7.18;1.08;;;17.40;99.90;;;;;;5034064;28;20048;-72
2022/10/25 03:43:05;;;;;;;2.35;0.80;;;17.30;99.90;;;;;;5049800;28;20433;-72
2022/10/25 03:45:31;;;;;;;4.50;0.80;;;17.40;99.90;;;;;;5034222;28;20029;-72
2022/10/25 03:47:57;;;;;;;6.28;1.08;;;17.40;99.90;;;;;;5034315;28;20042;-72
2022/10/25 03:50:22;;;;;;;3.80;0.40;;;17.30;99.90;;;;;;5034188;28;20029;-72
2022/10/25 03:52:48;;;;;;;6.53;0.77;;;17.30;99.90;;;;;;5034202;28;20025;-72
2022/10/25 03:55:13;;;;;;;3.78;0.88;;;17.30;99.90;;;;;;5034161;28;20080;-72
2022/10/25 03:57:39;;;;;;;3.67;0.93;;;17.30;99.90;;;;;;5033906;28;20033;-72
2022/10/25 04:00:05;;;;;;;5.30;0.80;;;17.30;99.90;;;;;;5034176;28;20021;-72
2022/10/25 04:02:31;;;;;;;3.42;0.82;;;17.30;99.90;;;;;;5034349;28;20486;-72
2022/10/25 04:04:56;;;;;;;4.47;0.65;;;17.30;99.90;;;;;;5033788;28;20028;-73
2022/10/25 04:07:22;;;;;;;3.63;0.75;;;17.30;99.90;;;;;;5033895;28;20041;-72
2022/10/25 04:09:47;;;;;;;4.47;0.88;;;17.30;99.90;;;;;;5033978;28;20509;-72
2022/10/25 04:12:13;;;;;;;4.38;0.73;;;17.20;99.90;;;;;;5033571;28;20032;-72
2022/10/25 04:14:39;;;;;;;3.55;0.68;;;17.20;99.90;;;;;;5033718;28;20481;-72
2022/10/25 04:17:05;;;;;;;7.50;1.30;;;17.30;99.90;;;;;;5033418;28;20017;-72
2022/10/25 04:19:30;;;;;;;4.68;1.17;;;17.30;99.90;;;;;;5049059;28;20028;-72
2022/10/25 04:21:56;;;;;;;3.58;0.90;;;17.20;99.90;;;;;;5033485;28;20028;-72
2022/10/25 04:24:22;;;;;;;5.18;0.88;;;17.20;99.90;;;;;;5033702;28;20025;-72
2022/10/25 04:26:48;;;;;;;6.15;0.70;;;17.20;99.90;;;;;;5033075;28;20026;-72
2022/10/25 04:29:14;;;;;;;4.90;1.10;;;17.20;99.90;;;;;;5033638;28;20128;-72
2022/10/25 04:31:40;;;;;;;5.32;1.00;;;17.20;99.90;;;;;;5033554;28;20025;-72
2022/10/25 04:34:06;;;;;;;6.55;1.10;;;17.20;99.90;;;;;;5033555;28;20539;-72
2022/10/25 04:36:32;;;;;;;5.53;1.10;;;17.20;99.90;;;;;;5033219;28;20029;-72
2022/10/25 04:38:58;;;;;;;4.50;1.08;;;17.20;99.90;;;;;;5033132;28;20061;-73
2022/10/25 04:41:23;;;;;;;5.88;1.15;;;17.20;99.90;;;;;;5032794;28;20069;-72
2022/10/25 04:43:50;;;;;;;5.35;1.17;;;17.20;99.90;;;;;;5033355;28;20393;-73
2022/10/25 04:46:17;;;;;;;5.90;1.00;;;17.10;99.90;;;;;;5033396;28;20439;-72
2022/10/25 04:48:42;;;;;;;8.70;1.73;;;17.10;99.90;;;;;;5033204;28;20037;-72
2022/10/25 04:51:10;;;;;;;5.43;1.50;;;17.10;99.90;;;;;;5032912;28;20025;-72
2022/10/25 04:53:35;;;;;;;3.95;1.50;;;17.10;99.90;;;;;;5033269;28;20036;-72
2022/10/25 04:56:06;;;;;;;8.82;1.75;;;17.10;99.90;;;;;;5032742;28;20030;-73
2022/10/25 04:58:32;;;;;;;9.63;1.60;;;17.10;99.90;;;;;;5033270;28;20029;-72
2022/10/25 05:01:00;;;;;;;5.45;1.27;;;17.10;99.90;;;;;;5036365;28;20021;-73
2022/10/25 05:03:29;;;;;;;7.88;1.55;;;17.10;99.90;;;;;;5048332;28;20021;-72
2022/10/25 05:06:03;;;;;;;2.63;1.00;;;17.10;99.90;;;;;;5051584;28;20033;-72
2022/10/25 05:08:29;;;;;;;6.43;1.85;;;17.10;99.90;;;;;;5050897;28;20033;-72
2022/10/25 05:10:54;;;;;;;2.30;1.08;;;17.10;99.90;;;;;;5051349;28;20025;-73
2022/10/25 05:13:20;;;;;;;4.68;1.17;;;17.10;99.90;;;;;;5052936;28;20446;-73
2022/10/25 05:15:56;;;;;;;8.48;2.30;;;17.10;99.90;;;;;;5052816;28;20083;-72
2022/10/25 05:18:22;;;;;;;7.47;1.95;;;17.00;99.90;;;;;;5051547;28;20031;-71
2022/10/25 05:20:55;;;;;;;5.80;1.65;;;17.00;99.90;;;;;;5039853;28;20468;-71
2022/10/25 05:23:22;;;;;;;6.38;1.40;;;17.00;99.90;;;;;;5045004;28;20134;-72
2022/10/25 05:25:58;;;;;;;7.72;1.67;;;17.10;99.90;;;;;;5036483;28;20036;-72
2022/10/25 05:28:23;;;;;;;4.18;1.27;;;17.00;99.90;;;;;;5045370;28;20392;-72
2022/10/25 05:30:49;;;;;;;5.65;1.13;;;17.10;99.90;;;;;;5050603;28;20021;-72
2022/10/25 05:33:15;;;;;;;6.05;1.25;;;17.20;99.90;;;;;;5052705;28;20085;-72
2022/10/25 05:35:40;;;;;;;3.45;0.90;;;17.20;99.80;;;;;;5055607;28;20036;-71
2022/10/25 05:38:06;;;;;;;2.70;0.95;;;17.20;99.80;;;;;;5054373;28;20017;-72
2022/10/25 05:40:32;;;;;;;6.60;1.45;;;17.20;99.50;;;;;;5052320;28;20041;-71
2022/10/25 05:42:59;;;;;;;3.05;0.93;;;17.20;99.60;;;;;;5040645;28;20485;-71
2022/10/25 05:45:24;;;;;;;1.83;0.60;;;17.20;99.60;;;;;;5049338;28;20028;-71
2022/10/25 05:47:50;;;;;;;4.47;1.42;;;17.20;99.50;;;;;;5038181;28;20410;-72
2022/10/25 05:50:16;;;;;;;7.13;1.52;;;17.20;99.90;;;;;;5050949;28;20057;-71
2022/10/25 05:52:42;;;;;;;5.45;0.95;;;17.20;99.90;;;;;;5045212;28;20033;-71
2022/10/25 05:55:09;;;;;;;2.33;0.68;;;17.20;99.90;;;;;;5046985;28;20041;-71
2022/10/25 05:57:35;;;;;;;4.40;0.70;;;17.30;99.90;;;;;;5048508;28;20025;-73
2022/10/25 06:00:01;;;;;;;2.83;0.75;;;17.30;99.90;;;;;;5049298;28;20366;-72
2022/10/25 06:02:26;;;;;;;3.97;1.02;;;17.30;99.90;;;;;;5049793;28;20105;-72
2022/10/25 06:04:53;;;;;;;4.47;1.05;;;17.30;99.90;;;;;;5048109;28;21018;-72
2022/10/25 06:07:19;;;;;;;5.22;1.40;;;17.40;99.90;;;;;;5042527;28;20021;-72
2022/10/25 06:09:44;;;;;;;15.43;2.42;;;17.40;99.90;;;;;;5043766;28;20898;-71
2022/10/25 06:12:10;;;;;;;9.90;2.03;;;17.40;99.90;;;;;;5045278;28;20207;-71
2022/10/25 06:14:36;;;;;;;7.72;1.67;;;17.40;99.90;;;;;;5045056;28;20079;-72
2022/10/25 06:17:01;;;;;;;10.00;1.95;;;17.30;99.90;;;;;;5040679;28;20018;-73
2022/10/25 06:19:27;;;;;;;11.70;2.13;;;17.30;99.90;;;;;;5040058;28;20033;-73
2022/10/25 06:21:53;;;;;;;8.25;2.25;;;17.30;99.90;;;;;;5044716;28;20033;-70
2022/10/25 06:24:19;;;;;;;8.27;1.80;;;17.30;99.90;;;;;;5047563;28;20432;-73
2022/10/25 06:26:44;;;;;;;12.10;2.20;;;17.30;99.90;;;;;;5053288;28;20029;-71
2022/10/25 06:29:10;;;;;;;15.63;2.50;;;17.30;99.90;;;;;;5055257;28;20538;-73
2022/10/25 06:31:36;;;;;;;10.30;2.53;;;17.30;99.90;;;;;;5055494;28;20071;-72
2022/10/25 06:34:02;;;;;;;7.22;1.83;;;17.30;99.90;;;;;;5055564;28;20520;-72
2022/10/25 06:36:29;;;;;;;11.05;2.67;;;17.30;99.90;;;;;;5055185;28;20018;-71
2022/10/25 06:38:55;;;;;;;8.70;2.67;;;17.30;99.90;;;;;;5046401;28;20178;-72
2022/10/25 06:41:26;;;;;;;6.85;2.05;;;17.30;99.90;;;;;;5042674;28;20538;-71
2022/10/25 06:43:52;;;;;;;8.95;2.15;;;17.30;99.90;;;;;;5045878;28;20394;-71
2022/10/25 06:46:24;;;;;;;7.90;2.22;;;17.20;99.90;;;;;;5034817;28;20450;-71
2022/10/25 06:48:51;;;;;;;9.52;2.03;;;17.20;99.90;;;;;;5035002;28;20421;-71
2022/10/25 06:51:17;;;;;;;8.88;2.13;;;17.20;99.90;;;;;;5052475;28;20381;-71
2022/10/25 06:53:43;;;;;;;8.35;2.30;;;17.20;99.90;;;;;;5050135;28;20577;-72
2022/10/25 06:56:11;;;;;;;8.15;1.85;;;17.20;99.90;;;;;;5050218;28;20028;-71
2022/10/25 06:58:37;;;;;;;7.00;2.05;;;17.20;99.90;;;;;;5042476;28;20251;-71
2022/10/25 07:01:06;;;;;;;7.57;2.10;;;17.20;99.90;;;;;;5050474;28;20550;-71
2022/10/25 07:03:35;;;;;;;5.43;2.25;;;17.20;99.90;;;;;;5054319;28;20021;-71
2022/10/25 07:06:22;;;;;;;6.03;1.73;;;17.20;99.90;;;;;;5053975;28;20025;-72
2022/10/25 07:08:55;;;;;;;10.77;2.38;;;17.20;99.90;;;;;;5047282;28;20028;-71
2022/10/25 07:11:23;;;;;;;7.03;2.10;;;17.30;99.90;;;;;;5044689;28;20094;-71
2022/10/25 07:13:49;;;;;;;8.55;2.25;;;17.20;99.90;;;;;;5048173;28;20025;-72
2022/10/25 07:16:17;;;;;;;6.50;1.58;;;17.30;99.90;;;;;;5052919;28;20476;-72
2022/10/25 07:18:43;;;;;;;7.38;2.13;;;17.30;99.90;;;;;;5051538;28;20357;-72
2022/10/25 07:21:14;;;;;;;8.52;1.95;;;17.30;99.90;;;;;;5050346;28;20045;-72
2022/10/25 07:23:41;;;;;;;6.87;1.93;;;17.30;99.90;;;;;;5047310;28;20104;-72
2022/10/25 07:26:16;;;;;;;4.95;1.90;;;17.30;99.90;;;;;;5052422;28;20029;-72
2022/10/25 07:28:43;;;;;;;6.65;2.08;;;17.30;99.90;;;;;;5044454;28;20057;-71
2022/10/25 07:31:23;;;;;;;9.00;2.08;;;17.30;99.90;;;;;;5054083;28;20017;-71
2022/10/25 07:33:50;;;;;;;6.18;2.03;;;17.30;99.90;;;;;;5053420;28;20025;-71
2022/10/25 07:36:16;;;;;;;7.70;2.35;;;17.30;99.90;;;;;;5037655;28;20049;-72
2022/10/25 07:38:42;;;;;;;6.85;2.13;;;17.30;99.90;;;;;;5045114;28;20060;-72
2022/10/25 07:41:08;;;;;;;6.20;2.42;;;17.30;99.90;;;;;;5039445;28;20368;-71
2022/10/25 07:43:34;;;;;;;8.32;1.73;;;17.30;99.90;;;;;;5050411;28;20025;-72
2022/10/25 07:46:00;;;;;;;5.15;1.45;;;17.30;99.90;;;;;;5048776;28;20017;-71
2022/10/25 07:48:25;;;;;;;9.50;2.05;;;17.30;99.90;;;;;;5048107;28;20026;-71
2022/10/25 07:50:51;;;;;;;6.32;2.10;;;17.30;99.90;;;;;;5035653;28;20024;-72
2022/10/25 07:53:16;;;;;;;6.75;1.95;;;17.30;99.90;;;;;;5039388;28;20021;-71
2022/10/25 07:55:42;;;;;;;6.30;2.03;;;17.30;99.90;;;;;;5047321;28;20051;-71
2022/10/25 07:58:10;;;;;;;6.22;1.88;;;17.30;99.90;;;;;;5035741;28;20534;-72
2022/10/25 08:00:37;;;;;;;6.07;1.45;;;17.30;99.90;;;;;;5036956;28;20424;-71
2022/10/25 08:03:03;;;;;;;6.60;1.70;;;17.30;99.90;;;;;;5037107;28;20025;-72
2022/10/25 08:05:29;;;;;;;8.95;2.15;;;17.30;99.90;;;;;;5052853;28;20500;-72
2022/10/25 08:07:54;;;;;;;8.77;1.70;;;17.30;99.90;;;;;;5053762;28;20029;-72
2022/10/25 08:10:21;;;;;;;7.88;2.00;;;17.30;99.90;;;;;;5051292;28;20040;-72
2022/10/25 08:12:47;;;;;;;9.05;2.35;;;17.30;99.90;;;;;;5053931;28;20029;-71
2022/10/25 08:15:13;;;;;;;7.47;1.80;;;17.30;99.90;;;;;;5038926;28;20037;-71
2022/10/25 08:17:39;;;;;;;8.90;1.98;;;17.30;99.90;;;;;;5034051;28;20043;-71
2022/10/25 08:20:05;;;;;;;4.35;1.65;;;17.30;99.90;;;;;;5036434;28;20033;-71
2022/10/25 08:22:31;;;;;;;7.45;1.38;;;17.30;99.90;;;;;;5033688;28;20026;-71
2022/10/25 08:24:57;;;;;;;6.78;1.70;;;17.30;99.90;;;;;;5033402;28;20029;-71
2022/10/25 08:27:22;;;;;;;8.98;1.90;;;17.30;99.90;;;;;;5034268;28;20026;-71
2022/10/25 08:29:48;;;;;;;7.00;1.58;;;17.30;99.90;;;;;;5053447;28;20071;-71
2022/10/25 08:32:13;;;;;;;5.85;1.92;;;17.30;99.90;;;;;;5041066;28;20024;-71
2022/10/25 08:34:39;;;;;;;6.18;1.90;;;17.30;99.90;;;;;;5034783;28;20455;-71
2022/10/25 08:37:05;;;;;;;6.47;2.40;;;17.30;99.90;;;;;;5040940;28;20079;-71
2022/10/25 08:39:31;;;;;;;9.60;2.08;;;17.30;99.90;;;;;;5037746;28;20117;-71
2022/10/25 08:41:59;;;;;;;7.10;2.00;;;17.30;99.90;;;;;;5037428;28;20109;-71
2022/10/25 08:44:46;;;;;;;6.78;2.20;;;17.30;99.90;;;;;;5050777;28;20036;-70
2022/10/25 08:47:28;;;;;;;6.47;1.65;;;17.30;99.90;;;;;;5039175;28;20021;-70
2022/10/25 08:50:17;;;;;;;6.60;1.58;;;17.30;99.90;;;;;;5041285;28;20029;-71
2022/10/25 08:52:48;;;;;;;7.68;1.55;;;17.30;99.90;;;;;;5033950;28;20029;-71
2022/10/25 08:55:35;;;;;;;7.18;1.80;;;17.30;99.90;;;;;;5039996;28;20025;-70
2022/10/25 08:58:06;;;;;;;6.05;1.77;;;17.30;99.90;;;;;;5038540;28;20106;-71
2022/10/25 09:00:38;;;;;;;6.15;2.08;;;17.30;99.90;;;;;;5035891;28;20544;-71
2022/10/25 09:03:04;;;;;;;;;;;17.30;99.90;;;;;;5047225;28;20139;-71
2022/10/25 09:05:40;;;;;;;8.65;2.05;;;17.30;99.90;;;;;;5051507;28;20003;-71
2022/10/25 09:08:12;;;;;;;7.97;2.00;;;17.30;99.90;;;;;;5041459;28;20033;-70
2022/10/25 09:10:44;;;;;;;5.78;1.83;;;17.30;99.90;;;;;;5047334;28;20032;-70
2022/10/25 09:13:41;;;;;;;7.82;2.03;;;17.40;99.90;;;;;;5052068;28;20358;-70
2022/10/25 09:16:15;;;;;;;7.78;1.55;;;17.40;99.90;;;;;;5051817;28;20382;-71
2022/10/25 09:18:51;;;;;;;7.25;2.38;;;17.40;99.90;;;;;;5051272;28;20131;-70
2022/10/25 09:21:35;;;;;;;5.28;1.90;;;17.40;99.90;;;;;;5052009;28;20021;-70
2022/10/25 09:24:07;;;;;;;8.77;1.95;;;17.40;99.90;;;;;;5042552;28;20037;-70
2022/10/25 09:26:47;;;;;;;8.52;1.67;;;17.40;99.90;;;;;;5052055;28;20021;-71
2022/10/25 09:29:28;;;;;;;8.10;2.10;;;17.40;99.90;;;;;;5045508;28;20121;-70
2022/10/25 09:31:58;;;;;;;4.80;1.58;;;17.40;99.90;;;;;;5040573;28;20086;-70
2022/10/25 09:34:27;;;;;;;7.35;2.20;;;17.40;99.90;;;;;;5036792;28;20097;-69
2022/10/25 09:37:15;;;;;;;5.70;1.83;;;17.40;99.90;;;;;;5044975;28;20474;-70
2022/10/25 09:39:45;;;;;;;4.13;1.88;;;17.40;99.90;;;;;;5044930;28;20412;-69
2022/10/25 09:42:18;;;;;;;5.53;1.48;;;17.50;99.90;;;;;;5049585;28;20025;-70
2022/10/25 09:45:05;;;;;;;11.32;2.10;;;17.50;99.90;;;;;;5034584;28;20029;-69
2022/10/25 09:47:53;;;;;;;6.78;1.65;;;17.50;99.90;;;;;;5045242;28;20474;-69
2022/10/25 09:50:41;;;;;;;5.78;1.73;;;17.50;99.90;;;;;;5037099;28;20389;-69
2022/10/25 09:53:12;;;;;;;8.02;1.75;;;17.50;99.90;;;;;;5040098;28;20024;-69
2022/10/25 09:55:59;;;;;;;11.03;1.63;;;17.50;99.90;;;;;;5045528;28;20073;-69
2022/10/25 09:58:29;;;;;;;6.15;2.08;;;17.50;99.90;;;;;;5052225;28;20021;-69
2022/10/25 10:01:11;;;;;;;6.57;1.73;;;17.60;99.90;;;;;;5035084;28;20592;-69
2022/10/25 10:03:36;;;;;;;7.50;2.17;;;17.60;99.90;;;;;;5040554;28;20036;-70
2022/10/25 10:06:24;;;;;;;9.27;2.10;;;17.60;99.90;;;;;;5045812;28;20033;-70
2022/10/25 10:09:02;;;;;;;6.05;1.92;;;17.60;99.90;;;;;;5032355;28;20049;-70
2022/10/25 10:11:29;;;;;;;6.93;1.67;;;17.60;99.90;;;;;;5041797;28;20033;-71
2022/10/25 10:14:11;;;;;;;7.03;1.85;;;17.60;99.90;;;;;;5036820;28;20037;-70
2022/10/25 10:16:44;;;;;;;;;;;17.60;99.90;;;;;;5056419;28;20032;-70
2022/10/25 10:19:22;;;;;;;6.00;1.77;;;17.60;99.90;;;;;;5047175;28;19971;-76
2022/10/25 10:22:07;;;;;;;7.13;1.70;;;17.60;99.90;;;;;;5045572;28;20021;-70
2022/10/25 10:24:39;;;;;;;7.13;1.90;;;17.60;99.90;;;;;;5042486;28;20091;-70
2022/10/25 10:27:09;;;;;;;;;;;17.60;99.90;;;;;;5054438;28;20040;-71
2022/10/25 10:29:51;;;;;;;5.28;1.42;;;17.60;99.90;;;;;;5049181;28;19916;-70
2022/10/25 10:32:30;;;;;;;;;;;17.60;99.90;;;;;;5046434;28;20040;-70
2022/10/25 10:34:57;;;;;;;9.68;2.03;;;17.70;99.90;;;;;;5042597;28;19908;-69
2022/10/25 10:37:25;;;;;;;8.43;2.13;;;17.70;99.90;;;;;;5047525;28;20025;-69
2022/10/25 10:40:05;;;;;;;7.35;2.20;;;17.60;99.90;;;;;;5052965;28;20053;-69
2022/10/25 10:42:37;;;;;;;8.05;2.00;;;17.60;99.90;;;;;;5049730;28;20509;-71
2022/10/25 10:45:08;;;;;;;8.15;1.80;;;17.60;99.90;;;;;;5049715;28;20088;-71
2022/10/25 10:47:49;;;;;;;6.43;1.80;;;17.70;99.90;;;;;;5040061;28;20129;-70
2022/10/25 10:50:24;;;;;;;12.50;2.20;;;17.70;99.90;;;;;;5038843;28;20037;-68
2022/10/25 10:53:05;;;;;;;9.82;1.67;;;17.70;99.90;;;;;;5043585;28;20021;-69
2022/10/25 10:55:47;;;;;;;8.43;1.75;;;17.80;99.90;;;;;;5052884;28;20115;-71
2022/10/25 10:58:18;;;;;;;9.15;1.85;;;17.80;99.90;;;;;;5053310;28;20028;-71
2022/10/25 11:00:55;;;;;;;7.28;1.52;;;17.80;99.90;;;;;;5055011;28;20017;-71
2022/10/25 11:03:39;;;;;;;8.70;2.05;;;17.80;99.90;;;;;;5054152;28;20450;-70
2022/10/25 11:06:06;;;;;;;8.32;1.95;;;17.80;99.90;;;;;;5052153;28;20528;-71
2022/10/25 11:08:33;;;;;;;9.05;2.25;;;17.90;99.90;;;;;;5054514;28;20037;-72
2022/10/25 11:11:16;;;;;;;4.90;1.58;;;17.80;99.90;;;;;;5054848;28;20036;-71
2022/10/25 11:13:50;;;;;;;;;;;17.80;99.90;;;;;;5054511;28;20083;-72
2022/10/25 11:16:27;;;;;;;7.20;1.65;;;17.90;99.90;;;;;;5054738;28;19999;-71
2022/10/25 11:19:32;;;;;;;8.48;1.60;;;17.90;99.90;;;;;;5054600;28;20044;-71
2022/10/25 11:22:16;;;;;;;10.73;1.35;;;17.90;99.90;;;;;;5054645;28;20021;-70
2022/10/25 11:25:08;;;;;;;5.65;1.30;;;17.90;99.90;;;;;;5054651;28;20094;-71
2022/10/25 11:27:50;;;;;;;5.68;1.83;;;17.90;99.90;;;;;;5053214;28;20025;-73
2022/10/25 11:30:21;;;;;;;7.53;1.50;;;18.10;96.70;;;;;;5054511;28;20401;-71
2022/10/25 11:33:06;;;;;;;9.63;1.30;;;18.20;99.90;;;;;;5054652;28;20074;-72
2022/10/25 11:35:34;;;;;;;7.75;1.55;;;18.20;99.90;;;;;;5054207;28;20064;-72
2022/10/25 11:38:27;;;;;;;7.43;1.52;;;18.30;99.90;;;;;;5054381;28;20044;-72
2022/10/25 11:41:20;;;;;;;6.28;1.55;;;18.50;99.90;;;;;;5054096;28;20040;-72
2022/10/25 11:44:04;;;;;;;8.68;2.05;;;18.60;99.70;;;;;;5054259;28;20385;-72
2022/10/25 11:46:45;;;;;;;7.38;1.65;;;18.60;99.40;;;;;;5054196;28;20021;-72
2022/10/25 11:49:32;;;;;;;12.90;2.03;;;18.60;99.50;;;;;;5054151;28;20068;-72
2022/10/25 11:52:20;;;;;;;8.45;1.75;;;18.60;99.50;;;;;;5054318;28;20029;-72
2022/10/25 11:55:05;;;;;;;10.40;2.33;;;18.60;99.30;;;;;;5053967;28;20083;-72
2022/10/25 11:57:49;;;;;;;10.52;2.70;;;18.70;99.30;;;;;;5053818;28;20025;-71
2022/10/25 12:00:20;;;;;;;9.52;2.42;;;18.60;99.10;;;;;;5049158;28;20036;-72
2022/10/25 12:02:58;;;;;;;14.23;2.97;;;18.60;99.20;;;;;;5037639;28;20036;-71
2022/10/25 12:05:35;;;;;;;10.48;2.67;;;18.60;99.10;;;;;;5048255;28;20163;-72
2022/10/25 12:08:28;;;;;;;9.95;2.25;;;18.70;98.90;;;;;;5053798;28;20100;-71
2022/10/25 12:11:01;;;;;;;9.45;1.95;;;18.70;98.70;;;;;;5051039;28;20029;-71
2022/10/25 12:13:34;;;;;;;11.75;2.33;;;18.70;98.70;;;;;;5045481;28;20024;-71
2022/10/25 12:16:03;;;;;;;8.68;1.90;;;18.80;98.60;;;;;;5045210;28;20083;-69
2022/10/25 12:18:36;;;;;;;8.25;2.22;;;18.80;98.50;;;;;;5039216;28;20061;-69
2022/10/25 12:21:03;;;;;;;12.23;1.83;;;18.80;98.60;;;;;;5047592;28;20085;-69
2022/10/25 12:23:42;;;;;;;13.20;2.33;;;18.90;98.50;;;;;;5047771;28;20496;-69
2022/10/25 12:26:34;;;;;;;6.10;1.40;;;18.90;98.40;;;;;;5051118;28;20025;-70
2022/10/25 12:29:05;;;;;;;10.90;2.17;;;19.00;98.40;;;;;;5041063;28;20402;-69
2022/10/25 12:31:41;;;;;;;11.45;2.47;;;18.90;98.50;;;;;;5041710;28;20028;-71
2022/10/25 12:34:33;;;;;;;8.10;1.73;;;19.00;98.60;;;;;;5041062;28;20022;-71
2022/10/25 12:37:34;;;;;;;5.93;1.60;;;19.00;98.80;;;;;;5056651;28;20020;-71
2022/10/25 12:39:59;;;;;;;8.70;1.83;;;19.00;98.90;;;;;;5014195;28;20081;-71
2022/10/25 12:42:32;;;;;;;5.28;1.35;;;19.00;98.90;;;;;;5036087;28;20057;-71
2022/10/25 12:45:09;;;;;;;5.60;1.27;;;19.00;99.00;;;;;;5046019;28;20111;-71
2022/10/25 12:48:06;;;;;;;6.88;1.25;;;19.00;98.90;;;;;;5052844;28;20078;-70
2022/10/25 12:50:58;;;;;;;4.38;1.52;;;19.00;98.90;;;;;;5033456;28;20037;-69
2022/10/25 12:53:59;;;;;;;8.32;1.83;;;19.10;98.80;;;;;;5047088;28;20048;-70
2022/10/25 12:56:49;;;;;;;6.70;1.63;;;19.10;98.80;;;;;;5046085;28;20041;-69
2022/10/25 12:59:35;;;;;;;6.22;1.40;;;19.10;98.80;;;;;;5052950;28;20029;-69
2022/10/25 13:02:15;;;;;;;5.65;1.50;;;19.00;98.70;;;;;;5035894;28;20017;-69
2022/10/25 13:05:18;;;;;;;3.85;1.10;;;19.00;98.60;;;;;;5048013;28;20053;-70
2022/10/25 13:07:46;;;;;;;6.75;1.65;;;19.00;98.60;;;;;;5044648;28;20393;-69
2022/10/25 13:10:18;;;;;;;3.95;1.23;;;19.10;98.30;;;;;;5042789;28;20025;-70